Time,TemperatureF,DewpointF,PressureIn,WindDirection,WindDirectionDegrees,WindSpeedMPH,WindSpeedGustMPH,Humidity,HourlyPrecipIn,Conditions,Clouds,dailyrainin,SoftwareType,DateUTC
2013-02-10 00:00:00,40.8,40.3,29.83,WSW,246,0.0,0.0,98,0.00,,---,0.00,VWS V14.01,2013-02-10 08:00:00,
2013-02-10 00:05:00,40.8,40.3,29.83,WSW,246,0.0,0.0,98,0.00,,---,0.00,VWS V14.01,2013-02-10 08:05:00,
2013-02-10 00:10:00,40.8,40.3,29.83,WSW,246,0.0,0.0,98,0.00,,---,0.00,VWS V14.01,2013-02-10 08:10:00,
2013-02-10 00:15:00,40.8,40.3,29.83,WSW,246,0.0,0.0,98,0.00,,---,0.00,VWS V14.01,2013-02-10 08:15:00,
2013-02-10 00:20:00,40.6,40.1,29.83,WSW,246,0.0,0.0,98,0.00,,---,0.00,VWS V14.01,2013-02-10 08:20:00,
2013-02-10 00:25:00,40.6,40.1,29.83,WSW,246,0.0,0.0,98,0.00,,---,0.00,VWS V14.01,2013-02-10 08:25:00,
2013-02-10 00:30:00,40.6,40.1,29.83,WSW,246,0.0,0.0,98,0.00,,---,0.00,VWS V14.01,2013-02-10 08:30:00,
2013-02-10 00:35:00,40.6,40.1,29.83,WSW,246,0.0,0.0,98,0.00,,---,0.00,VWS V14.01,2013-02-10 08:35:00,
2013-02-10 00:40:00,40.6,40.1,29.83,WSW,246,0.0,0.0,98,0.00,,---,0.00,VWS V14.01,2013-02-10 08:40:00,
2013-02-10 00:45:00,40.6,40.1,29.83,WSW,246,0.0,0.0,98,0.00,,---,0.00,VWS V14.01,2013-02-10 08:45:00,
2013-02-10 00:50:00,40.6,40.1,29.83,WSW,246,0.0,0.0,98,0.00,,---,0.00,VWS V14.01,2013-02-10 08:50:00,
2013-02-10 00:55:00,40.6,40.1,29.83,WSW,246,0.0,0.0,98,0.00,,---,0.00,VWS V14.01,2013-02-10 08:55:00,
2013-02-10 01:00:00,40.6,40.1,29.83,WSW,246,0.0,0.0,98,0.00,,---,0.00,VWS V14.01,2013-02-10 09:00:00,
2013-02-10 01:05:00,40.5,39.9,29.83,WSW,246,0.0,0.0,98,0.00,,---,0.00,VWS V14.01,2013-02-10 09:05:00,
2013-02-10 01:10:00,40.5,39.9,29.83,WSW,246,0.0,0.0,98,0.00,,---,0.00,VWS V14.01,2013-02-10 09:10:00,
2013-02-10 01:15:00,40.3,39.8,29.83,WSW,246,0.0,0.0,98,0.00,,---,0.00,VWS V14.01,2013-02-10 09:15:00,
2013-02-10 01:20:00,40.3,39.8,29.83,WSW,246,0.0,0.0,98,0.00,,---,0.00,VWS V14.01,2013-02-10 09:20:00,
2013-02-10 01:25:00,40.1,39.6,29.83,WSW,246,0.0,0.0,98,0.00,,---,0.00,VWS V14.01,2013-02-10 09:25:00,
2013-02-10 01:30:00,40.1,39.6,29.83,WSW,246,0.0,0.0,98,0.00,,---,0.00,VWS V14.01,2013-02-10 09:30:00,
2013-02-10 01:35:00,40.1,39.6,29.83,WSW,246,0.0,0.0,98,0.00,,---,0.00,VWS V14.01,2013-02-10 09:35:00,
2013-02-10 01:40:00,40.3,39.8,29.83,WSW,246,0.0,0.0,98,0.00,,---,0.00,VWS V14.01,2013-02-10 09:40:00,
2013-02-10 01:45:00,40.3,39.8,29.83,WSW,246,0.0,0.0,98,0.00,,---,0.00,VWS V14.01,2013-02-10 09:45:00,
2013-02-10 01:50:00,40.1,39.6,29.83,WSW,246,0.0,0.0,98,0.00,,---,0.00,VWS V14.01,2013-02-10 09:50:00,
2013-02-10 01:54:00,40.1,39.6,29.83,WSW,246,0.0,0.0,98,0.00,,---,0.00,VWS V14.01,2013-02-10 09:54:00,
2013-02-10 01:59:00,40.1,39.6,29.83,WSW,246,0.0,0.0,98,0.00,,---,0.00,VWS V14.01,2013-02-10 09:59:00,
2013-02-10 02:04:00,39.9,39.4,29.83,WSW,246,0.0,0.0,98,0.00,,---,0.00,VWS V14.01,2013-02-10 10:04:00,
2013-02-10 02:09:00,39.9,39.4,29.83,WSW,246,0.0,0.0,98,0.00,,---,0.00,VWS V14.01,2013-02-10 10:09:00,
2013-02-10 02:14:00,39.9,39.4,29.83,WSW,246,0.0,0.0,98,0.00,,---,0.00,VWS V14.01,2013-02-10 10:14:00,
2013-02-10 02:19:00,39.7,39.2,29.85,WSW,246,0.0,0.0,98,0.00,,---,0.00,VWS V14.01,2013-02-10 10:19:00,
2013-02-10 02:24:00,39.7,39.2,29.85,WSW,246,0.0,0.0,98,0.00,,---,0.00,VWS V14.01,2013-02-10 10:24:00,
2013-02-10 02:29:00,39.6,39.0,29.85,WSW,246,0.0,0.0,98,0.00,,---,0.00,VWS V14.01,2013-02-10 10:29:00,
2013-02-10 02:34:00,39.6,39.0,29.83,WSW,246,0.0,0.0,98,0.00,,---,0.00,VWS V14.01,2013-02-10 10:34:00,
2013-02-10 02:39:00,39.4,38.9,29.83,WSW,246,0.0,0.0,98,0.00,,---,0.00,VWS V14.01,2013-02-10 10:39:00,
2013-02-10 02:44:00,39.4,38.9,29.83,WSW,246,0.0,0.0,98,0.00,,---,0.00,VWS V14.01,2013-02-10 10:44:00,
2013-02-10 02:49:00,39.4,38.9,29.83,WSW,246,0.0,0.0,98,0.00,,---,0.00,VWS V14.01,2013-02-10 10:49:00,
2013-02-10 02:54:00,39.4,38.9,29.83,WSW,246,0.0,0.0,98,0.00,,---,0.00,VWS V14.01,2013-02-10 10:54:00,
2013-02-10 02:59:00,39.4,38.9,29.83,WSW,246,0.0,0.0,98,0.00,,---,0.00,VWS V14.01,2013-02-10 10:59:00,
2013-02-10 03:04:00,39.2,38.7,29.83,WSW,246,0.0,0.0,98,0.00,,---,0.00,VWS V14.01,2013-02-10 11:04:00,
2013-02-10 03:09:00,39.4,38.9,29.83,WSW,246,0.0,0.0,98,0.00,,---,0.00,VWS V14.01,2013-02-10 11:09:00,
2013-02-10 03:14:00,39.2,38.4,29.83,WSW,246,0.0,0.0,97,0.00,,---,0.00,VWS V14.01,2013-02-10 11:14:00,
2013-02-10 03:19:00,39.2,38.4,29.83,WSW,246,0.0,0.0,97,0.00,,---,0.00,VWS V14.01,2013-02-10 11:19:00,
2013-02-10 03:24:00,39.2,38.4,29.83,WSW,246,0.0,0.0,97,0.00,,---,0.00,VWS V14.01,2013-02-10 11:24:00,
2013-02-10 03:29:00,39.2,38.4,29.83,WSW,246,0.0,0.0,97,0.00,,---,0.00,VWS V14.01,2013-02-10 11:29:00,
2013-02-10 03:34:00,39.0,38.5,29.83,WSW,246,0.0,0.0,98,0.00,,---,0.00,VWS V14.01,2013-02-10 11:34:00,
2013-02-10 03:39:00,39.0,38.5,29.83,WSW,246,0.0,0.0,98,0.00,,---,0.00,VWS V14.01,2013-02-10 11:39:00,
2013-02-10 03:44:00,38.8,38.3,29.83,WSW,246,0.0,0.0,98,0.00,,---,0.00,VWS V14.01,2013-02-10 11:44:00,
2013-02-10 03:49:00,38.8,38.3,29.83,WSW,246,0.0,0.0,98,0.00,,---,0.00,VWS V14.01,2013-02-10 11:49:00,
2013-02-10 03:54:00,38.8,38.3,29.83,WSW,246,0.0,0.0,98,0.00,,---,0.00,VWS V14.01,2013-02-10 11:54:00,
2013-02-10 03:59:00,38.8,38.3,29.83,WSW,246,0.0,0.0,98,0.00,,---,0.00,VWS V14.01,2013-02-10 11:59:00,
2013-02-10 04:04:00,38.8,38.3,29.83,WSW,246,0.0,0.0,98,0.00,,---,0.00,VWS V14.01,2013-02-10 12:04:00,
2013-02-10 04:09:00,38.7,38.2,29.83,WSW,246,0.0,0.0,98,0.00,,---,0.00,VWS V14.01,2013-02-10 12:09:00,
2013-02-10 04:14:00,38.7,38.2,29.83,WSW,246,0.0,0.0,98,0.00,,---,0.00,VWS V14.01,2013-02-10 12:14:00,
2013-02-10 04:19:00,38.5,38.0,29.83,WSW,246,0.0,0.0,98,0.00,,---,0.00,VWS V14.01,2013-02-10 12:19:00,
2013-02-10 04:24:00,38.5,38.0,29.83,WSW,246,0.0,0.0,98,0.00,,---,0.00,VWS V14.01,2013-02-10 12:24:00,
2013-02-10 04:29:00,38.7,38.2,29.83,WSW,246,0.0,0.0,98,0.00,,---,0.00,VWS V14.01,2013-02-10 12:29:00,
2013-02-10 04:34:00,38.5,38.0,29.83,WSW,246,0.0,0.0,98,0.00,,---,0.00,VWS V14.01,2013-02-10 12:34:00,
2013-02-10 04:39:00,38.5,37.7,29.83,WSW,246,0.0,0.0,97,0.00,,---,0.00,VWS V14.01,2013-02-10 12:39:00,
2013-02-10 04:44:00,38.5,37.7,29.83,WSW,246,0.0,0.0,97,0.00,,---,0.00,VWS V14.01,2013-02-10 12:44:00,
2013-02-10 04:49:00,38.5,37.7,29.83,WSW,246,0.0,0.0,97,0.00,,---,0.00,VWS V14.01,2013-02-10 12:49:00,
2013-02-10 04:54:00,38.5,37.7,29.83,WSW,246,0.0,0.0,97,0.00,,---,0.00,VWS V14.01,2013-02-10 12:54:00,
2013-02-10 04:59:00,38.3,37.5,29.83,WSW,246,0.0,0.0,97,0.00,,---,0.00,VWS V14.01,2013-02-10 12:59:00,
2013-02-10 05:04:00,38.3,37.5,29.83,WSW,246,0.0,0.0,97,0.00,,---,0.00,VWS V14.01,2013-02-10 13:04:00,
2013-02-10 05:09:00,38.1,37.3,29.83,WSW,246,0.0,0.0,97,0.00,,---,0.00,VWS V14.01,2013-02-10 13:09:00,
2013-02-10 05:14:00,38.1,37.3,29.83,WSW,246,0.0,0.0,97,0.00,,---,0.00,VWS V14.01,2013-02-10 13:14:00,
2013-02-10 05:19:00,38.1,37.3,29.83,WSW,246,0.0,0.0,97,0.00,,---,0.00,VWS V14.01,2013-02-10 13:19:00,
2013-02-10 05:24:00,37.9,37.2,29.85,WSW,246,0.0,0.0,97,0.00,,---,0.00,VWS V14.01,2013-02-10 13:24:00,
2013-02-10 05:29:00,37.9,37.4,29.85,WSW,246,0.0,0.0,98,0.00,,---,0.00,VWS V14.01,2013-02-10 13:29:00,
2013-02-10 05:34:00,37.9,37.4,29.83,WSW,246,0.0,0.0,98,0.00,,---,0.00,VWS V14.01,2013-02-10 13:34:00,
2013-02-10 05:39:00,37.9,37.4,29.83,WSW,246,0.0,0.0,98,0.00,,---,0.00,VWS V14.01,2013-02-10 13:39:00,
2013-02-10 05:44:00,37.9,37.2,29.83,WSW,246,0.0,0.0,97,0.00,,---,0.00,VWS V14.01,2013-02-10 13:44:00,
2013-02-10 05:49:00,37.9,37.2,29.83,WSW,246,0.0,0.0,97,0.00,,---,0.00,VWS V14.01,2013-02-10 13:49:00,
2013-02-10 05:54:00,37.8,37.0,29.83,WSW,246,0.0,0.0,97,0.00,,---,0.00,VWS V14.01,2013-02-10 13:54:00,
2013-02-10 05:59:00,37.8,37.2,29.83,WSW,246,0.0,0.0,98,0.00,,---,0.00,VWS V14.01,2013-02-10 13:59:00,
2013-02-10 06:04:00,37.9,37.4,29.83,WSW,246,0.0,0.0,98,0.00,,---,0.00,VWS V14.01,2013-02-10 14:04:00,
2013-02-10 06:09:00,37.6,36.8,29.83,WSW,246,0.0,0.0,97,0.00,,---,0.00,VWS V14.01,2013-02-10 14:09:00,
2013-02-10 06:14:00,37.8,37.0,29.83,WSW,246,0.0,0.0,97,0.00,,---,0.00,VWS V14.01,2013-02-10 14:14:00,
2013-02-10 06:19:00,37.6,36.8,29.83,WSW,246,0.0,0.0,97,0.00,,---,0.00,VWS V14.01,2013-02-10 14:19:00,
2013-02-10 06:24:00,37.4,36.6,29.83,WSW,246,0.0,0.0,97,0.00,,---,0.00,VWS V14.01,2013-02-10 14:24:00,
2013-02-10 06:29:00,37.4,36.6,29.83,WSW,246,0.0,0.0,97,0.00,,---,0.00,VWS V14.01,2013-02-10 14:29:00,
2013-02-10 06:34:00,37.8,37.0,29.83,WSW,246,0.0,0.0,97,0.00,,---,0.00,VWS V14.01,2013-02-10 14:34:00,
2013-02-10 06:39:00,37.8,37.0,29.83,WSW,246,0.0,0.0,97,0.00,,---,0.00,VWS V14.01,2013-02-10 14:39:00,
2013-02-10 06:44:00,37.8,37.0,29.83,WSW,246,0.0,0.0,97,0.00,,---,0.00,VWS V14.01,2013-02-10 14:44:00,
2013-02-10 06:49:00,37.6,36.8,29.83,WSW,246,0.0,0.0,97,0.00,,---,0.00,VWS V14.01,2013-02-10 14:49:00,
2013-02-10 06:54:00,37.4,36.6,29.83,WSW,246,0.0,0.0,97,0.00,,---,0.00,VWS V14.01,2013-02-10 14:54:00,
2013-02-10 06:59:00,37.2,36.7,29.83,WSW,246,0.0,0.0,98,0.00,,---,0.00,VWS V14.01,2013-02-10 14:59:00,
2013-02-10 07:04:00,37.0,36.3,29.85,WSW,246,0.0,0.0,97,0.00,,---,0.00,VWS V14.01,2013-02-10 15:04:00,
2013-02-10 07:09:00,37.0,36.3,29.85,WSW,246,0.0,0.0,97,0.00,,---,0.00,VWS V14.01,2013-02-10 15:09:00,
2013-02-10 07:14:00,37.2,36.5,29.85,WSW,246,0.0,0.0,97,0.00,,---,0.00,VWS V14.01,2013-02-10 15:14:00,
2013-02-10 07:19:00,37.2,36.5,29.85,WSW,246,0.0,0.0,97,0.00,,---,0.00,VWS V14.01,2013-02-10 15:19:00,
2013-02-10 07:24:00,37.4,36.6,29.85,WSW,246,0.0,0.0,97,0.00,,---,0.00,VWS V14.01,2013-02-10 15:24:00,
2013-02-10 07:29:00,37.4,36.6,29.85,WSW,246,0.0,0.0,97,0.00,,---,0.00,VWS V14.01,2013-02-10 15:29:00,
2013-02-10 07:34:00,37.4,36.6,29.85,WSW,246,0.0,0.0,97,0.00,,---,0.00,VWS V14.01,2013-02-10 15:34:00,
2013-02-10 07:39:00,36.9,36.1,29.85,WSW,246,0.0,0.0,97,0.00,,---,0.00,VWS V14.01,2013-02-10 15:39:00,
2013-02-10 07:44:00,36.9,36.1,29.85,WSW,246,0.0,0.0,97,0.00,,---,0.00,VWS V14.01,2013-02-10 15:44:00,
2013-02-10 07:49:00,36.7,35.9,29.85,WSW,246,0.0,0.0,97,0.00,,---,0.00,VWS V14.01,2013-02-10 15:49:00,
2013-02-10 07:54:00,36.5,35.7,29.85,WSW,246,0.0,0.0,97,0.00,,---,0.00,VWS V14.01,2013-02-10 15:54:00,
2013-02-10 07:59:00,36.5,35.7,29.85,WSW,246,0.0,0.0,97,0.00,,---,0.00,VWS V14.01,2013-02-10 15:59:00,
2013-02-10 08:04:00,36.5,35.7,29.85,WSW,246,0.0,0.0,97,0.00,,---,0.00,VWS V14.01,2013-02-10 16:04:00,
2013-02-10 08:09:00,36.5,35.7,29.85,WSW,246,0.0,0.0,97,0.00,,---,0.00,VWS V14.01,2013-02-10 16:09:00,
2013-02-10 08:14:00,36.3,35.5,29.85,WSW,246,0.0,0.0,97,0.00,,---,0.00,VWS V14.01,2013-02-10 16:14:00,
2013-02-10 08:19:00,36.5,35.7,29.85,WSW,246,0.0,0.0,97,0.00,,---,0.00,VWS V14.01,2013-02-10 16:19:00,
2013-02-10 08:24:00,36.7,35.9,29.85,WSW,246,0.0,0.0,97,0.00,,---,0.00,VWS V14.01,2013-02-10 16:24:00,
2013-02-10 08:29:00,36.7,35.9,29.85,WSW,246,0.0,0.0,97,0.00,,---,0.00,VWS V14.01,2013-02-10 16:29:00,
2013-02-10 08:34:00,36.5,35.7,29.85,WSW,246,0.0,0.0,97,0.00,,---,0.00,VWS V14.01,2013-02-10 16:34:00,
2013-02-10 08:39:00,36.9,36.1,29.85,WSW,246,0.0,0.0,97,0.00,,---,0.00,VWS V14.01,2013-02-10 16:39:00,
2013-02-10 08:44:00,36.7,35.9,29.85,SE,146,2.7,2.7,97,0.00,,---,0.00,VWS V14.01,2013-02-10 16:44:00,
2013-02-10 08:49:00,36.9,36.1,29.85,South,187,0.0,0.0,97,0.00,,---,0.00,VWS V14.01,2013-02-10 16:49:00,
2013-02-10 08:54:00,36.9,36.1,29.85,South,187,0.0,0.0,97,0.00,,---,0.00,VWS V14.01,2013-02-10 16:54:00,
2013-02-10 08:59:00,37.0,36.3,29.85,South,187,0.0,0.0,97,0.00,,---,0.00,VWS V14.01,2013-02-10 16:59:00,
2013-02-10 09:04:00,37.0,36.3,29.85,South,187,0.0,0.0,97,0.00,,---,0.00,VWS V14.01,2013-02-10 17:04:00,
2013-02-10 09:09:00,37.0,36.3,29.85,SW,219,2.2,2.2,97,0.00,,---,0.00,VWS V14.01,2013-02-10 17:09:00,
2013-02-10 09:14:00,37.4,36.6,29.85,SSE,159,0.0,0.0,97,0.00,,---,0.00,VWS V14.01,2013-02-10 17:14:00,
2013-02-10 09:19:00,37.4,36.6,29.85,SSE,159,0.0,0.0,97,0.00,,---,0.00,VWS V14.01,2013-02-10 17:19:00,
2013-02-10 09:24:00,37.0,36.3,29.85,SSE,168,0.0,0.0,97,0.00,,---,0.00,VWS V14.01,2013-02-10 17:24:00,
2013-02-10 09:29:00,37.4,36.6,29.85,SSE,168,0.0,0.0,97,0.00,,---,0.00,VWS V14.01,2013-02-10 17:29:00,
2013-02-10 09:34:00,37.4,36.6,29.85,SSE,168,0.0,0.0,97,0.00,,---,0.00,VWS V14.01,2013-02-10 17:34:00,
2013-02-10 09:39:00,37.9,37.2,29.85,SSE,168,0.0,0.0,97,0.00,,---,0.00,VWS V14.01,2013-02-10 17:39:00,
2013-02-10 09:44:00,37.9,37.2,29.85,SSE,168,0.0,0.0,97,0.00,,---,0.00,VWS V14.01,2013-02-10 17:44:00,
2013-02-10 09:49:00,38.1,37.3,29.85,SSE,168,0.0,0.0,97,0.00,,---,0.00,VWS V14.01,2013-02-10 17:49:00,
2013-02-10 09:54:00,38.3,37.5,29.85,SSE,168,0.0,0.0,97,0.00,,---,0.00,VWS V14.01,2013-02-10 17:54:00,
2013-02-10 09:59:00,38.3,37.5,29.85,ESE,122,0.0,0.0,97,0.00,,---,0.00,VWS V14.01,2013-02-10 17:59:00,
2013-02-10 10:04:00,38.3,37.5,29.85,ENE,73,0.0,0.0,97,0.00,,---,0.00,VWS V14.01,2013-02-10 18:04:00,
2013-02-10 10:09:00,38.3,37.5,29.85,East,89,0.0,0.0,97,0.00,,---,0.00,VWS V14.01,2013-02-10 18:09:00,
2013-02-10 10:14:00,38.5,37.7,29.85,ENE,75,0.0,0.0,97,0.00,,---,0.00,VWS V14.01,2013-02-10 18:14:00,
2013-02-10 10:19:00,38.5,37.7,29.85,WSW,240,2.2,2.2,97,0.00,,---,0.00,VWS V14.01,2013-02-10 18:19:00,
2013-02-10 10:24:00,38.7,37.9,29.85,WSW,240,2.2,2.2,97,0.00,,---,0.00,VWS V14.01,2013-02-10 18:24:00,
2013-02-10 10:29:00,38.7,37.9,29.85,South,184,0.0,0.0,97,0.00,,---,0.00,VWS V14.01,2013-02-10 18:29:00,
2013-02-10 10:34:00,38.8,38.1,29.85,WSW,242,2.2,2.2,97,0.00,,---,0.00,VWS V14.01,2013-02-10 18:34:00,
2013-02-10 10:39:00,38.7,37.9,29.85,WSW,243,0.0,0.0,97,0.00,,---,0.00,VWS V14.01,2013-02-10 18:39:00,
2013-02-10 10:44:00,39.0,38.2,29.85,WSW,243,0.0,0.0,97,0.00,,---,0.00,VWS V14.01,2013-02-10 18:44:00,
2013-02-10 10:49:00,39.2,38.4,29.85,WSW,243,0.0,0.0,97,0.00,,---,0.00,VWS V14.01,2013-02-10 18:49:00,
2013-02-10 10:54:00,39.4,38.6,29.85,WSW,245,0.0,0.0,97,0.00,,---,0.00,VWS V14.01,2013-02-10 18:54:00,
2013-02-10 10:59:00,39.2,38.2,29.85,WSW,245,0.0,0.0,96,0.00,,---,0.00,VWS V14.01,2013-02-10 18:59:00,
2013-02-10 11:04:00,39.4,38.6,29.85,WSW,244,0.0,0.0,97,0.00,,---,0.00,VWS V14.01,2013-02-10 19:04:00,
2013-02-10 11:09:00,39.7,39.0,29.85,WSW,244,0.0,0.0,97,0.00,,---,0.00,VWS V14.01,2013-02-10 19:09:00,
2013-02-10 11:14:00,39.7,39.0,29.85,WSW,244,0.0,0.0,97,0.00,,---,0.00,VWS V14.01,2013-02-10 19:14:00,
2013-02-10 11:19:00,40.5,39.7,29.85,SSE,160,0.0,0.0,97,0.00,,---,0.00,VWS V14.01,2013-02-10 19:19:00,
2013-02-10 11:24:00,41.2,40.1,29.85,SSE,160,0.0,0.0,96,0.00,,---,0.00,VWS V14.01,2013-02-10 19:24:00,
2013-02-10 11:29:00,41.7,40.7,29.85,SSE,160,0.0,0.0,96,0.00,,---,0.00,VWS V14.01,2013-02-10 19:29:00,
2013-02-10 11:34:00,41.2,40.1,29.85,SSE,160,0.0,0.0,96,0.00,,---,0.00,VWS V14.01,2013-02-10 19:34:00,
2013-02-10 11:39:00,41.2,40.1,29.83,SSE,160,0.0,0.0,96,0.00,,---,0.00,VWS V14.01,2013-02-10 19:39:00,
2013-02-10 11:44:00,41.2,40.1,29.83,SSE,160,0.0,0.0,96,0.00,,---,0.00,VWS V14.01,2013-02-10 19:44:00,
2013-02-10 11:49:00,41.4,40.3,29.85,SSE,160,0.0,0.0,96,0.00,,---,0.00,VWS V14.01,2013-02-10 19:49:00,
2013-02-10 11:54:00,41.4,40.3,29.85,NNE,21,0.0,0.0,96,0.00,,---,0.00,VWS V14.01,2013-02-10 19:54:00,
2013-02-10 11:59:00,41.5,40.5,29.85,NNE,15,0.0,0.0,96,0.00,,---,0.00,VWS V14.01,2013-02-10 19:59:00,
2013-02-10 12:04:00,42.1,41.0,29.85,NE,47,0.0,0.0,96,0.00,,---,0.00,VWS V14.01,2013-02-10 20:04:00,
2013-02-10 12:09:00,42.1,41.0,29.85,West,267,0.0,0.0,96,0.00,,---,0.00,VWS V14.01,2013-02-10 20:09:00,
2013-02-10 12:14:00,42.1,41.0,29.85,West,267,0.0,0.0,96,0.00,,---,0.00,VWS V14.01,2013-02-10 20:14:00,
2013-02-10 12:19:00,41.5,40.5,29.85,ENE,72,0.0,0.0,96,0.00,,---,0.00,VWS V14.01,2013-02-10 20:19:00,
2013-02-10 12:24:00,42.3,41.2,29.85,ENE,72,0.0,0.0,96,0.00,,---,0.00,VWS V14.01,2013-02-10 20:24:00,
2013-02-10 12:29:00,42.4,41.1,29.85,ESE,102,2.2,2.2,95,0.00,,---,0.00,VWS V14.01,2013-02-10 20:29:00,
2013-02-10 12:34:00,42.4,41.1,29.85,ESE,102,0.0,0.0,95,0.00,,---,0.00,VWS V14.01,2013-02-10 20:34:00,
2013-02-10 12:39:00,42.8,41.5,29.85,NNE,27,0.0,0.0,95,0.00,,---,0.00,VWS V14.01,2013-02-10 20:39:00,
2013-02-10 12:44:00,42.8,41.5,29.85,NW,308,2.2,2.2,95,0.00,,---,0.00,VWS V14.01,2013-02-10 20:44:00,
2013-02-10 12:49:00,43.7,42.1,29.85,NW,325,0.0,0.0,94,0.00,,---,0.00,VWS V14.01,2013-02-10 20:49:00,
2013-02-10 12:54:00,44.1,42.5,29.85,SSW,203,2.7,2.7,94,0.00,,---,0.00,VWS V14.01,2013-02-10 20:54:00,
2013-02-10 12:59:00,44.6,42.7,29.85,ENE,62,0.0,0.0,93,0.00,,---,0.00,VWS V14.01,2013-02-10 20:59:00,
2013-02-10 13:04:00,44.6,42.7,29.85,West,259,0.0,4.0,93,0.00,,---,0.00,VWS V14.01,2013-02-10 21:04:00,
2013-02-10 13:09:00,45.3,43.1,29.85,East,93,0.0,0.0,92,0.00,,---,0.00,VWS V14.01,2013-02-10 21:09:00,
2013-02-10 13:14:00,46.0,43.8,29.85,SE,141,2.7,2.7,92,0.00,,---,0.00,VWS V14.01,2013-02-10 21:14:00,
2013-02-10 13:19:00,45.9,43.4,29.83,East,84,0.0,0.0,91,0.00,,---,0.00,VWS V14.01,2013-02-10 21:19:00,
2013-02-10 13:24:00,46.2,43.5,29.83,WSW,250,2.7,2.7,90,0.00,,---,0.00,VWS V14.01,2013-02-10 21:24:00,
2013-02-10 13:29:00,46.6,43.5,29.83,West,263,0.0,0.0,89,0.00,,---,0.00,VWS V14.01,2013-02-10 21:29:00,
2013-02-10 13:34:00,46.9,43.6,29.83,West,267,0.0,0.0,88,0.00,,---,0.00,VWS V14.01,2013-02-10 21:34:00,
2013-02-10 13:39:00,47.1,43.5,29.83,NNW,343,0.0,0.0,87,0.00,,---,0.00,VWS V14.01,2013-02-10 21:39:00,
2013-02-10 13:44:00,47.3,43.0,29.83,NNW,343,0.0,0.0,85,0.00,,---,0.00,VWS V14.01,2013-02-10 21:44:00,
2013-02-10 13:49:00,46.9,42.0,29.83,East,94,2.2,2.2,83,0.00,,---,0.00,VWS V14.01,2013-02-10 21:49:00,
2013-02-10 13:54:00,47.1,41.6,29.83,WSW,238,4.0,4.0,81,0.00,,---,0.00,VWS V14.01,2013-02-10 21:54:00,
2013-02-10 13:59:00,47.3,41.5,29.83,NW,316,2.7,2.7,80,0.00,,---,0.00,VWS V14.01,2013-02-10 21:59:00,
2013-02-10 14:04:00,47.5,41.3,29.83,East,79,2.2,2.2,79,0.00,,---,0.00,VWS V14.01,2013-02-10 22:04:00,
2013-02-10 14:09:00,47.1,40.6,29.83,WSW,250,2.7,2.7,78,0.00,,---,0.00,VWS V14.01,2013-02-10 22:09:00,
2013-02-10 14:14:00,47.3,40.8,29.83,South,180,2.7,2.7,78,0.00,,---,0.00,VWS V14.01,2013-02-10 22:14:00,
2013-02-10 14:19:00,47.7,40.8,29.83,SW,230,0.0,2.7,77,0.00,,---,0.00,VWS V14.01,2013-02-10 22:19:00,
2013-02-10 14:24:00,47.8,41.0,29.83,SSW,202,0.0,0.0,77,0.00,,---,0.00,VWS V14.01,2013-02-10 22:24:00,
2013-02-10 14:29:00,48.2,41.3,29.83,SSW,202,0.0,0.0,77,0.00,,---,0.00,VWS V14.01,2013-02-10 22:29:00,
2013-02-10 14:34:00,48.4,41.2,29.83,SW,227,3.6,3.6,76,0.00,,---,0.00,VWS V14.01,2013-02-10 22:34:00,
2013-02-10 14:39:00,47.3,39.8,29.83,SW,227,0.0,3.6,75,0.00,,---,0.00,VWS V14.01,2013-02-10 22:39:00,
2013-02-10 14:44:00,47.3,39.8,29.83,WSW,248,2.7,2.7,75,0.00,,---,0.00,VWS V14.01,2013-02-10 22:44:00,
2013-02-10 14:49:00,47.7,40.1,29.83,WSW,248,2.7,2.7,75,0.00,,---,0.00,VWS V14.01,2013-02-10 22:49:00,
2013-02-10 14:54:00,46.9,39.4,29.83,NE,42,0.0,0.0,75,0.00,,---,0.00,VWS V14.01,2013-02-10 22:54:00,
2013-02-10 14:59:00,46.6,38.8,29.83,NE,42,0.0,0.0,74,0.00,,---,0.00,VWS V14.01,2013-02-10 22:59:00,
2013-02-10 15:04:00,47.3,40.1,29.83,NE,42,0.0,0.0,76,0.00,,---,0.00,VWS V14.01,2013-02-10 23:04:00,
2013-02-10 15:09:00,47.8,41.3,29.83,SSW,207,2.2,2.2,78,0.00,,---,0.00,VWS V14.01,2013-02-10 23:09:00,
2013-02-10 15:14:00,48.2,41.3,29.83,SSW,207,0.0,2.7,77,0.00,,---,0.00,VWS V14.01,2013-02-10 23:14:00,
2013-02-10 15:18:00,48.4,41.5,29.83,SSW,207,0.0,0.0,77,0.00,,---,0.00,VWS V14.01,2013-02-10 23:18:00,
2013-02-10 15:24:00,48.2,41.0,29.83,SSW,207,0.0,0.0,76,0.00,,---,0.00,VWS V14.01,2013-02-10 23:24:00,
2013-02-10 15:28:00,47.7,40.5,29.83,SSW,207,0.0,0.0,76,0.00,,---,0.00,VWS V14.01,2013-02-10 23:28:00,
2013-02-10 15:33:00,46.6,38.8,29.83,SSW,207,0.0,0.0,74,0.00,,---,0.00,VWS V14.01,2013-02-10 23:33:00,
2013-02-10 15:39:00,46.4,38.6,29.83,SSW,207,0.0,0.0,74,0.00,,---,0.00,VWS V14.01,2013-02-10 23:39:00,
2013-02-10 15:44:00,46.2,38.8,29.83,SSW,207,0.0,0.0,75,0.00,,---,0.00,VWS V14.01,2013-02-10 23:44:00,
2013-02-10 15:49:00,45.7,38.2,29.83,SSW,207,0.0,0.0,75,0.00,,---,0.00,VWS V14.01,2013-02-10 23:49:00,
2013-02-10 15:53:00,45.7,38.2,29.83,SSW,207,0.0,0.0,75,0.00,,---,0.00,VWS V14.01,2013-02-10 23:53:00,
2013-02-10 15:58:00,45.9,38.7,29.83,SSW,207,0.0,0.0,76,0.00,,---,0.00,VWS V14.01,2013-02-10 23:58:00,
2013-02-10 16:03:00,45.7,38.6,29.83,SSW,207,0.0,0.0,76,0.00,,---,0.00,VWS V14.01,2013-02-11 00:03:00,
2013-02-10 16:08:00,45.3,38.2,29.83,SSW,207,0.0,0.0,76,0.00,,---,0.00,VWS V14.01,2013-02-11 00:08:00,
2013-02-10 16:13:00,45.3,38.2,29.83,SSW,207,0.0,0.0,76,0.00,,---,0.00,VWS V14.01,2013-02-11 00:13:00,
2013-02-10 16:18:00,45.3,38.5,29.85,SSW,207,0.0,0.0,77,0.00,,---,0.00,VWS V14.01,2013-02-11 00:18:00,
2013-02-10 16:23:00,45.3,38.5,29.85,SSW,207,0.0,0.0,77,0.00,,---,0.00,VWS V14.01,2013-02-11 00:23:00,
2013-02-10 16:28:00,45.0,38.2,29.85,SSW,207,0.0,0.0,77,0.00,,---,0.00,VWS V14.01,2013-02-11 00:28:00,
2013-02-10 16:33:00,45.0,38.2,29.85,SSW,207,0.0,0.0,77,0.00,,---,0.00,VWS V14.01,2013-02-11 00:33:00,
2013-02-10 16:38:00,44.6,37.8,29.85,SSW,207,0.0,0.0,77,0.00,,---,0.00,VWS V14.01,2013-02-11 00:38:00,
2013-02-10 16:43:00,44.4,37.7,29.85,SSW,207,0.0,0.0,77,0.00,,---,0.00,VWS V14.01,2013-02-11 00:43:00,
2013-02-10 16:48:00,44.4,38.0,29.83,SSW,207,0.0,0.0,78,0.00,,---,0.00,VWS V14.01,2013-02-11 00:48:00,
2013-02-10 16:53:00,44.2,37.8,29.83,SSW,207,0.0,0.0,78,0.00,,---,0.00,VWS V14.01,2013-02-11 00:53:00,
2013-02-10 16:58:00,44.1,37.7,29.83,SSW,207,0.0,0.0,78,0.00,,---,0.00,VWS V14.01,2013-02-11 00:58:00,
2013-02-10 17:03:00,44.1,37.7,29.83,SSW,207,0.0,0.0,78,0.00,,---,0.00,VWS V14.01,2013-02-11 01:03:00,
2013-02-10 17:08:00,43.9,37.5,29.83,SSW,207,0.0,0.0,78,0.00,,---,0.00,VWS V14.01,2013-02-11 01:08:00,
2013-02-10 17:13:00,43.9,37.8,29.83,SSW,207,0.0,0.0,79,0.00,,---,0.00,VWS V14.01,2013-02-11 01:13:00,
2013-02-10 17:18:00,44.1,38.3,29.83,SSW,207,0.0,0.0,80,0.00,,---,0.00,VWS V14.01,2013-02-11 01:18:00,
2013-02-10 17:23:00,44.1,38.3,29.83,SSW,207,0.0,0.0,80,0.00,,---,0.00,VWS V14.01,2013-02-11 01:23:00,
2013-02-10 17:28:00,44.1,38.6,29.83,SSW,207,0.0,0.0,81,0.00,,---,0.00,VWS V14.01,2013-02-11 01:28:00,
2013-02-10 17:33:00,43.9,38.8,29.83,SSW,207,0.0,0.0,82,0.00,,---,0.00,VWS V14.01,2013-02-11 01:33:00,
2013-02-10 17:38:00,43.5,38.4,29.83,SSW,207,0.0,0.0,82,0.00,,---,0.00,VWS V14.01,2013-02-11 01:38:00,
2013-02-10 17:43:00,43.5,38.4,29.83,SSW,207,0.0,0.0,82,0.00,,---,0.00,VWS V14.01,2013-02-11 01:43:00,
2013-02-10 17:48:00,43.3,38.2,29.83,SSW,207,0.0,0.0,82,0.00,,---,0.00,VWS V14.01,2013-02-11 01:48:00,
2013-02-10 17:53:00,43.3,38.5,29.83,SSW,207,0.0,0.0,83,0.00,,---,0.00,VWS V14.01,2013-02-11 01:53:00,
2013-02-10 17:58:00,43.2,38.4,29.83,SSW,207,0.0,0.0,83,0.00,,---,0.00,VWS V14.01,2013-02-11 01:58:00,
2013-02-10 18:03:00,43.2,38.4,29.83,SSW,207,0.0,0.0,83,0.00,,---,0.00,VWS V14.01,2013-02-11 02:03:00,
2013-02-10 18:08:00,43.3,38.8,29.83,SSW,207,0.0,0.0,84,0.00,,---,0.00,VWS V14.01,2013-02-11 02:08:00,
2013-02-10 18:13:00,43.3,38.8,29.83,SSW,207,0.0,0.0,84,0.00,,---,0.00,VWS V14.01,2013-02-11 02:13:00,
2013-02-10 18:18:00,43.3,39.1,29.83,SSW,207,0.0,0.0,85,0.00,,---,0.00,VWS V14.01,2013-02-11 02:18:00,
2013-02-10 18:23:00,43.3,39.1,29.83,SSW,207,0.0,0.0,85,0.00,,---,0.00,VWS V14.01,2013-02-11 02:23:00,
2013-02-10 18:28:00,43.3,39.1,29.83,SSW,207,0.0,0.0,85,0.00,,---,0.00,VWS V14.01,2013-02-11 02:28:00,
2013-02-10 18:33:00,43.3,39.4,29.83,SSW,207,0.0,0.0,86,0.00,,---,0.00,VWS V14.01,2013-02-11 02:33:00,
2013-02-10 18:38:00,43.3,39.4,29.83,SSW,207,0.0,0.0,86,0.00,,---,0.00,VWS V14.01,2013-02-11 02:38:00,
2013-02-10 18:43:00,43.0,38.8,29.83,SSW,207,0.0,0.0,85,0.00,,---,0.00,VWS V14.01,2013-02-11 02:43:00,
2013-02-10 18:48:00,43.0,38.8,29.83,SSW,207,0.0,0.0,85,0.00,,---,0.00,VWS V14.01,2013-02-11 02:48:00,
2013-02-10 18:53:00,43.0,39.1,29.83,SSW,207,0.0,0.0,86,0.00,,---,0.00,VWS V14.01,2013-02-11 02:53:00,
2013-02-10 18:58:00,42.8,38.9,29.83,SSW,207,0.0,0.0,86,0.00,,---,0.00,VWS V14.01,2013-02-11 02:58:00,
2013-02-10 19:03:00,42.6,38.7,29.83,SSW,207,0.0,0.0,86,0.00,,---,0.00,VWS V14.01,2013-02-11 03:03:00,
2013-02-10 19:08:00,42.6,38.7,29.83,SSW,207,0.0,0.0,86,0.00,,---,0.00,VWS V14.01,2013-02-11 03:08:00,
2013-02-10 19:13:00,42.4,38.6,29.83,SSW,207,0.0,0.0,86,0.00,,---,0.00,VWS V14.01,2013-02-11 03:13:00,
2013-02-10 19:18:00,42.3,38.4,29.83,SSW,207,0.0,0.0,86,0.00,,---,0.00,VWS V14.01,2013-02-11 03:18:00,
2013-02-10 19:23:00,42.3,38.7,29.83,SSW,207,0.0,0.0,87,0.00,,---,0.00,VWS V14.01,2013-02-11 03:23:00,
2013-02-10 19:28:00,42.3,38.7,29.83,SSW,207,0.0,0.0,87,0.00,,---,0.00,VWS V14.01,2013-02-11 03:28:00,
2013-02-10 19:33:00,42.3,38.7,29.83,SSW,207,0.0,0.0,87,0.00,,---,0.00,VWS V14.01,2013-02-11 03:33:00,
2013-02-10 19:38:00,42.4,38.8,29.83,SSW,207,0.0,0.0,87,0.00,,---,0.00,VWS V14.01,2013-02-11 03:38:00,
2013-02-10 19:43:00,42.3,38.7,29.83,SSW,207,0.0,0.0,87,0.00,,---,0.00,VWS V14.01,2013-02-11 03:43:00,
2013-02-10 19:48:00,42.1,38.8,29.83,SSW,207,0.0,0.0,88,0.00,,---,0.00,VWS V14.01,2013-02-11 03:48:00,
2013-02-10 19:53:00,42.1,38.8,29.83,SSW,207,0.0,0.0,88,0.00,,---,0.00,VWS V14.01,2013-02-11 03:53:00,
2013-02-10 19:58:00,41.9,38.6,29.83,SSW,207,0.0,0.0,88,0.00,,---,0.00,VWS V14.01,2013-02-11 03:58:00,
2013-02-10 20:03:00,41.9,38.6,29.85,SSW,207,0.0,0.0,88,0.00,,---,0.00,VWS V14.01,2013-02-11 04:03:00,
2013-02-10 20:08:00,41.9,38.6,29.85,SSW,207,0.0,0.0,88,0.00,,---,0.00,VWS V14.01,2013-02-11 04:08:00,
2013-02-10 20:13:00,41.7,38.4,29.85,SSW,207,0.0,0.0,88,0.00,,---,0.00,VWS V14.01,2013-02-11 04:13:00,
2013-02-10 20:18:00,41.7,38.4,29.83,SSW,207,0.0,0.0,88,0.00,,---,0.00,VWS V14.01,2013-02-11 04:18:00,
2013-02-10 20:23:00,41.7,38.4,29.83,SSW,207,0.0,0.0,88,0.00,,---,0.00,VWS V14.01,2013-02-11 04:23:00,
2013-02-10 20:28:00,41.7,38.4,29.83,SSW,207,0.0,0.0,88,0.00,,---,0.00,VWS V14.01,2013-02-11 04:28:00,
2013-02-10 20:33:00,41.5,38.3,29.83,SSW,207,0.0,0.0,88,0.00,,---,0.00,VWS V14.01,2013-02-11 04:33:00,
2013-02-10 20:38:00,41.5,38.3,29.83,SSW,207,0.0,0.0,88,0.00,,---,0.00,VWS V14.01,2013-02-11 04:38:00,
2013-02-10 20:43:00,41.5,38.3,29.83,SSW,207,0.0,0.0,88,0.00,,---,0.00,VWS V14.01,2013-02-11 04:43:00,
2013-02-10 20:48:00,41.5,38.3,29.85,SSW,207,0.0,0.0,88,0.00,,---,0.00,VWS V14.01,2013-02-11 04:48:00,
2013-02-10 20:53:00,41.5,38.3,29.85,SSW,207,0.0,0.0,88,0.00,,---,0.00,VWS V14.01,2013-02-11 04:53:00,
2013-02-10 20:58:00,41.7,38.4,29.85,SSW,207,0.0,0.0,88,0.00,,---,0.00,VWS V14.01,2013-02-11 04:58:00,
2013-02-10 21:00:00,41.7,38.4,29.85,SSW,207,0.0,0.0,88,0.00,,---,0.00,VWS V14.01,2013-02-11 05:00:00,
2013-02-10 21:05:00,41.7,38.7,29.83,SSW,207,0.0,0.0,89,0.00,,---,0.00,VWS V14.01,2013-02-11 05:05:00,
2013-02-10 21:10:00,41.7,38.7,29.83,SSW,207,0.0,0.0,89,0.00,,---,0.00,VWS V14.01,2013-02-11 05:10:00,
2013-02-10 21:15:00,41.7,38.7,29.83,SSW,207,0.0,0.0,89,0.00,,---,0.00,VWS V14.01,2013-02-11 05:15:00,
2013-02-10 21:20:00,41.7,38.7,29.83,SSW,207,0.0,0.0,89,0.00,,---,0.00,VWS V14.01,2013-02-11 05:20:00,
2013-02-10 21:25:00,41.5,38.5,29.83,SSW,207,0.0,0.0,89,0.00,,---,0.00,VWS V14.01,2013-02-11 05:25:00,
2013-02-10 21:30:00,41.5,38.5,29.83,SSW,207,0.0,0.0,89,0.00,,---,0.00,VWS V14.01,2013-02-11 05:30:00,
2013-02-10 21:35:00,41.5,38.5,29.83,SSW,207,0.0,0.0,89,0.00,,---,0.00,VWS V14.01,2013-02-11 05:35:00,
2013-02-10 21:40:00,41.2,38.2,29.83,SSW,207,0.0,0.0,89,0.00,,---,0.00,VWS V14.01,2013-02-11 05:40:00,
2013-02-10 21:45:00,41.2,38.2,29.83,SSW,207,0.0,0.0,89,0.00,,---,0.00,VWS V14.01,2013-02-11 05:45:00,
2013-02-10 21:50:00,41.2,38.2,29.83,SSW,207,0.0,0.0,89,0.00,,---,0.00,VWS V14.01,2013-02-11 05:50:00,
2013-02-10 21:55:00,41.2,38.2,29.83,SSW,207,0.0,0.0,89,0.00,,---,0.00,VWS V14.01,2013-02-11 05:55:00,
2013-02-10 22:00:00,41.2,38.2,29.83,SSW,207,0.0,0.0,89,0.00,,---,0.00,VWS V14.01,2013-02-11 06:00:00,
2013-02-10 22:05:00,41.2,38.5,29.83,SSW,207,0.0,0.0,90,0.00,,---,0.00,VWS V14.01,2013-02-11 06:05:00,
2013-02-10 22:10:00,41.2,38.5,29.83,SSW,207,0.0,0.0,90,0.00,,---,0.00,VWS V14.01,2013-02-11 06:10:00,
2013-02-10 22:15:00,41.2,38.5,29.83,SSW,207,0.0,0.0,90,0.00,,---,0.00,VWS V14.01,2013-02-11 06:15:00,
2013-02-10 22:20:00,41.0,38.3,29.83,SSW,207,0.0,0.0,90,0.00,,---,0.00,VWS V14.01,2013-02-11 06:20:00,
2013-02-10 22:25:00,41.0,38.3,29.83,SSW,207,0.0,0.0,90,0.00,,---,0.00,VWS V14.01,2013-02-11 06:25:00,
2013-02-10 22:30:00,40.8,38.1,29.83,SSW,207,0.0,0.0,90,0.00,,---,0.00,VWS V14.01,2013-02-11 06:30:00,
2013-02-10 22:35:00,40.6,37.9,29.83,SSW,207,0.0,0.0,90,0.00,,---,0.00,VWS V14.01,2013-02-11 06:35:00,
2013-02-10 22:40:00,40.6,38.2,29.83,SSW,207,0.0,0.0,91,0.00,,---,0.00,VWS V14.01,2013-02-11 06:40:00,
2013-02-10 22:45:00,40.6,38.2,29.83,SSW,207,0.0,0.0,91,0.00,,---,0.00,VWS V14.01,2013-02-11 06:45:00,
2013-02-10 22:50:00,40.6,38.2,29.83,SSW,207,0.0,0.0,91,0.00,,---,0.00,VWS V14.01,2013-02-11 06:50:00,
2013-02-10 22:55:00,40.6,38.2,29.83,SSW,207,0.0,0.0,91,0.00,,---,0.00,VWS V14.01,2013-02-11 06:55:00,
2013-02-10 23:00:00,40.5,38.0,29.83,SSW,207,0.0,0.0,91,0.00,,---,0.00,VWS V14.01,2013-02-11 07:00:00,
2013-02-10 23:05:00,40.5,38.0,29.83,SSW,207,0.0,0.0,91,0.00,,---,0.00,VWS V14.01,2013-02-11 07:05:00,
2013-02-10 23:10:00,40.5,38.3,29.83,SSW,207,0.0,0.0,92,0.00,,---,0.00,VWS V14.01,2013-02-11 07:10:00,
2013-02-10 23:15:00,40.5,38.3,29.83,SSW,207,0.0,0.0,92,0.00,,---,0.00,VWS V14.01,2013-02-11 07:15:00,
2013-02-10 23:20:00,40.5,38.3,29.83,SSW,207,0.0,0.0,92,0.00,,---,0.00,VWS V14.01,2013-02-11 07:20:00,
2013-02-10 23:25:00,40.5,38.3,29.83,SSW,207,0.0,0.0,92,0.00,,---,0.00,VWS V14.01,2013-02-11 07:25:00,
2013-02-10 23:30:00,40.5,38.3,29.83,SSW,207,0.0,0.0,92,0.00,,---,0.00,VWS V14.01,2013-02-11 07:30:00,
2013-02-10 23:35:00,40.3,38.4,29.83,SSW,207,0.0,0.0,93,0.00,,---,0.00,VWS V14.01,2013-02-11 07:35:00,
2013-02-10 23:40:00,40.3,38.4,29.83,SSW,207,0.0,0.0,93,0.00,,---,0.00,VWS V14.01,2013-02-11 07:40:00,
2013-02-10 23:45:00,40.3,38.4,29.83,SSW,207,0.0,0.0,93,0.00,,---,0.00,VWS V14.01,2013-02-11 07:45:00,
2013-02-10 23:50:00,40.3,38.4,29.83,SSW,207,0.0,0.0,93,0.00,,---,0.00,VWS V14.01,2013-02-11 07:50:00,
2013-02-10 23:55:00,40.3,38.4,29.83,SSW,207,0.0,0.0,93,0.00,,---,0.00,VWS V14.01,2013-02-11 07:55:00,